sensor_id;sensor_type;location;lat;lon;timestamp;pressure;altitude;pressure_sealevel;temperature
45393;BMP280;31129;44.810;10.334;2024-02-23T00:01:28;76591.47;;;11.28
45393;BMP280;31129;44.810;10.334;2024-02-23T00:03:54;76598.00;;;11.31
45393;BMP280;31129;44.810;10.334;2024-02-23T00:06:20;76604.09;;;11.42
45393;BMP280;31129;44.810;10.334;2024-02-23T00:08:46;76597.50;;;11.33
45393;BMP280;31129;44.810;10.334;2024-02-23T00:11:12;76598.59;;;11.34
45393;BMP280;31129;44.810;10.334;2024-02-23T00:13:37;76604.06;;;11.39
45393;BMP280;31129;44.810;10.334;2024-02-23T00:16:03;76605.19;;;11.43
45393;BMP280;31129;44.810;10.334;2024-02-23T00:18:29;76603.53;;;11.39
45393;BMP280;31129;44.810;10.334;2024-02-23T00:20:55;76584.41;;;11.24
45393;BMP280;31129;44.810;10.334;2024-02-23T00:23:21;76595.31;;;11.31
45393;BMP280;31129;44.810;10.334;2024-02-23T00:25:47;76599.69;;;11.35
45393;BMP280;31129;44.810;10.334;2024-02-23T00:28:12;76598.63;;;11.37
45393;BMP280;31129;44.810;10.334;2024-02-23T00:30:38;76601.31;;;11.34
45393;BMP280;31129;44.810;10.334;2024-02-23T00:33:03;76611.19;;;11.46
45393;BMP280;31129;44.810;10.334;2024-02-23T00:35:29;76606.28;;;11.44
45393;BMP280;31129;44.810;10.334;2024-02-23T00:37:55;76604.06;;;11.39
45393;BMP280;31129;44.810;10.334;2024-02-23T00:40:20;76595.31;;;11.31
45393;BMP280;31129;44.810;10.334;2024-02-23T00:42:46;76595.25;;;11.26
45393;BMP280;31129;44.810;10.334;2024-02-23T00:45:11;76580.00;;;11.20
45393;BMP280;31129;44.810;10.334;2024-02-23T00:47:37;76589.81;;;11.24
45393;BMP280;31129;44.810;10.334;2024-02-23T00:50:03;76598.03;;;11.34
45393;BMP280;31129;44.810;10.334;2024-02-23T00:52:29;76607.88;;;11.43
45393;BMP280;31129;44.810;10.334;2024-02-23T00:54:54;76609.59;;;11.47
45393;BMP280;31129;44.810;10.334;2024-02-23T00:57:20;76596.94;;;11.33
45393;BMP280;31129;44.810;10.334;2024-02-23T00:59:52;76606.78;;;11.42
45393;BMP280;31129;44.810;10.334;2024-02-23T01:02:37;76595.34;;;11.34
45393;BMP280;31129;44.810;10.334;2024-02-23T01:05:03;76594.22;;;11.30
45393;BMP280;31129;44.810;10.334;2024-02-23T01:07:28;76591.47;;;11.28
45393;BMP280;31129;44.810;10.334;2024-02-23T01:09:54;76596.91;;;11.30
45393;BMP280;31129;44.810;10.334;2024-02-23T01:12:19;76599.69;;;11.35
45393;BMP280;31129;44.810;10.334;2024-02-23T01:14:45;76594.28;;;11.35
45393;BMP280;31129;44.810;10.334;2024-02-23T01:17:10;76606.25;;;11.42
45393;BMP280;31129;44.810;10.334;2024-02-23T01:19:36;76596.97;;;11.35
45393;BMP280;31129;44.810;10.334;2024-02-23T01:22:01;76616.59;;;11.46
45393;BMP280;31129;44.810;10.334;2024-02-23T01:24:27;76621.56;;;11.56
45393;BMP280;31129;44.810;10.334;2024-02-23T01:26:54;76626.53;;;11.63
45393;BMP280;31129;44.810;10.334;2024-02-23T01:29:21;76639.66;;;11.72
45393;BMP280;31129;44.810;10.334;2024-02-23T01:31:48;76640.19;;;11.73
45393;BMP280;31129;44.810;10.334;2024-02-23T01:34:14;76639.66;;;11.72
45393;BMP280;31129;44.810;10.334;2024-02-23T01:36:39;76634.19;;;11.67
45393;BMP280;31129;44.810;10.334;2024-02-23T01:39:05;76641.28;;;11.74
45393;BMP280;31129;44.810;10.334;2024-02-23T01:41:30;76638.53;;;11.69
45393;BMP280;31129;44.810;10.334;2024-02-23T01:43:57;76630.34;;;11.64
45393;BMP280;31129;44.810;10.334;2024-02-23T01:46:23;76648.38;;;11.78
45393;BMP280;31129;44.810;10.334;2024-02-23T01:48:49;76647.25;;;11.77
45393;BMP280;31129;44.810;10.334;2024-02-23T01:51:14;76644.00;;;11.74
45393;BMP280;31129;44.810;10.334;2024-02-23T01:53:40;76641.28;;;11.74
45393;BMP280;31129;44.810;10.334;2024-02-23T01:56:06;76638.00;;;11.71
45393;BMP280;31129;44.810;10.334;2024-02-23T01:58:33;76641.84;;;11.74
45393;BMP280;31129;44.810;10.334;2024-02-23T02:00:59;76642.34;;;11.72
45393;BMP280;31129;44.810;10.334;2024-02-23T02:03:25;76652.78;;;11.85
45393;BMP280;31129;44.810;10.334;2024-02-23T02:05:50;76666.41;;;11.92
45393;BMP280;31129;44.810;10.334;2024-02-23T02:08:17;76656.59;;;11.86
45393;BMP280;31129;44.810;10.334;2024-02-23T02:10:43;76654.97;;;11.87
45393;BMP280;31129;44.810;10.334;2024-02-23T02:13:10;76650.56;;;11.80
45393;BMP280;31129;44.810;10.334;2024-02-23T02:15:36;76646.75;;;11.77
45393;BMP280;31129;44.810;10.334;2024-02-23T02:18:01;76631.41;;;11.62
45393;BMP280;31129;44.810;10.334;2024-02-23T02:20:27;76643.97;;;11.71
45393;BMP280;31129;44.810;10.334;2024-02-23T02:22:53;76654.41;;;11.84
45393;BMP280;31129;44.810;10.334;2024-02-23T02:25:19;76638.00;;;11.71
45393;BMP280;31129;44.810;10.334;2024-02-23T02:27:44;76650.56;;;11.80
45393;BMP280;31129;44.810;10.334;2024-02-23T02:30:11;76635.19;;;11.61
45393;BMP280;31129;44.810;10.334;2024-02-23T02:32:37;76616.66;;;11.51
45393;BMP280;31129;44.810;10.334;2024-02-23T02:35:03;76606.19;;;11.36
45393;BMP280;31129;44.810;10.334;2024-02-23T02:37:29;76599.16;;;11.37
45393;BMP280;31129;44.810;10.334;2024-02-23T02:39:54;76598.53;;;11.29
45393;BMP280;31129;44.810;10.334;2024-02-23T02:42:20;76624.28;;;11.53
45393;BMP280;31129;44.810;10.334;2024-02-23T02:44:45;76602.97;;;11.38
45393;BMP280;31129;44.810;10.334;2024-02-23T02:47:11;76607.84;;;11.41
45393;BMP280;31129;44.810;10.334;2024-02-23T02:49:36;76609.50;;;11.42
45393;BMP280;31129;44.810;10.334;2024-02-23T02:52:01;76598.59;;;11.34
45393;BMP280;31129;44.810;10.334;2024-02-23T02:54:27;76611.66;;;11.42
45393;BMP280;31129;44.810;10.334;2024-02-23T02:56:52;76610.09;;;11.45
45393;BMP280;31129;44.810;10.334;2024-02-23T02:59:20;76593.69;;;11.32
45393;BMP280;31129;44.810;10.334;2024-02-23T03:01:45;76613.34;;;11.46
45393;BMP280;31129;44.810;10.334;2024-02-23T03:04:12;76605.13;;;11.38
45393;BMP280;31129;44.810;10.334;2024-02-23T03:06:38;76599.66;;;11.33
45393;BMP280;31129;44.810;10.334;2024-02-23T03:09:03;76592.56;;;11.29
45393;BMP280;31129;44.810;10.334;2024-02-23T03:11:30;76603.47;;;11.34
45393;BMP280;31129;44.810;10.334;2024-02-23T03:13:55;76594.22;;;11.30
45393;BMP280;31129;44.810;10.334;2024-02-23T03:16:21;76588.72;;;11.25
45393;BMP280;31129;44.810;10.334;2024-02-23T03:18:52;76599.13;;;11.35
45393;BMP280;31129;44.810;10.334;2024-02-23T03:21:19;76604.00;;;11.34
45393;BMP280;31129;44.810;10.334;2024-02-23T03:23:45;76599.66;;;11.33
45393;BMP280;31129;44.810;10.334;2024-02-23T03:26:10;76588.16;;;11.22
45393;BMP280;31129;44.810;10.334;2024-02-23T03:28:36;76588.72;;;11.23
45393;BMP280;31129;44.810;10.334;2024-02-23T03:31:02;76589.81;;;11.24
45393;BMP280;31129;44.810;10.334;2024-02-23T03:33:27;76595.34;;;11.34
45393;BMP280;31129;44.810;10.334;2024-02-23T03:35:53;76590.88;;;11.25
45393;BMP280;31129;44.810;10.334;2024-02-23T03:38:18;76604.59;;;11.37
45393;BMP280;31129;44.810;10.334;2024-02-23T03:40:44;76606.75;;;11.39
45393;BMP280;31129;44.810;10.334;2024-02-23T03:43:09;76606.25;;;11.42
45393;BMP280;31129;44.810;10.334;2024-02-23T03:45:35;76603.47;;;11.34
45393;BMP280;31129;44.810;10.334;2024-02-23T03:48:02;76617.19;;;11.49
45393;BMP280;31129;44.810;10.334;2024-02-23T03:50:28;76614.47;;;11.49
45393;BMP280;31129;44.810;10.334;2024-02-23T03:52:54;76614.44;;;11.47
45393;BMP280;31129;44.810;10.334;2024-02-23T03:55:20;76614.41;;;11.44
45393;BMP280;31129;44.810;10.334;2024-02-23T03:57:45;76607.84;;;11.38
45393;BMP280;31129;44.810;10.334;2024-02-23T04:00:11;76605.69;;;11.41
45393;BMP280;31129;44.810;10.334;2024-02-23T04:02:39;76606.81;;;11.45
45393;BMP280;31129;44.810;10.334;2024-02-23T04:05:05;76616.63;;;11.49
45393;BMP280;31129;44.810;10.334;2024-02-23T04:07:31;76622.66;;;11.54
45393;BMP280;31129;44.810;10.334;2024-02-23T04:09:56;76615.00;;;11.47
45393;BMP280;31129;44.810;10.334;2024-02-23T04:12:22;76623.22;;;11.57
45393;BMP280;31129;44.810;10.334;2024-02-23T04:14:47;76628.63;;;11.57
45393;BMP280;31129;44.810;10.334;2024-02-23T04:17:13;76624.88;;;11.59
45393;BMP280;31129;44.810;10.334;2024-02-23T04:19:40;76629.22;;;11.60
45393;BMP280;31129;44.810;10.334;2024-02-23T04:22:06;76620.47;;;11.55
45393;BMP280;31129;44.810;10.334;2024-02-23T04:24:34;76619.94;;;11.54
45393;BMP280;31129;44.810;10.334;2024-02-23T04:26:59;76629.75;;;11.61
45393;BMP280;31129;44.810;10.334;2024-02-23T04:29:25;76634.66;;;11.63
45393;BMP280;31129;44.810;10.334;2024-02-23T04:31:50;76632.50;;;11.63
45393;BMP280;31129;44.810;10.334;2024-02-23T04:34:16;76633.00;;;11.59
45393;BMP280;31129;44.810;10.334;2024-02-23T04:36:42;76624.28;;;11.56
45393;BMP280;31129;44.810;10.334;2024-02-23T04:39:07;76624.88;;;11.59
45393;BMP280;31129;44.810;10.334;2024-02-23T04:41:33;76627.63;;;11.64
45393;BMP280;31129;44.810;10.334;2024-02-23T04:43:59;76637.41;;;11.65
45393;BMP280;31129;44.810;10.334;2024-02-23T04:46:28;76639.06;;;11.67
45393;BMP280;31129;44.810;10.334;2024-02-23T04:48:54;76638.53;;;11.71
45393;BMP280;31129;44.810;10.334;2024-02-23T04:51:20;76635.78;;;11.66
45393;BMP280;31129;44.810;10.334;2024-02-23T04:53:47;76644.00;;;11.74
45393;BMP280;31129;44.810;10.334;2024-02-23T04:56:13;76639.63;;;11.70
45393;BMP280;31129;44.810;10.334;2024-02-23T04:58:38;76643.44;;;11.73
45393;BMP280;31129;44.810;10.334;2024-02-23T05:01:06;76642.94;;;11.76
45393;BMP280;31129;44.810;10.334;2024-02-23T05:03:32;76644.56;;;11.77
45393;BMP280;31129;44.810;10.334;2024-02-23T05:05:57;76647.81;;;11.78
45393;BMP280;31129;44.810;10.334;2024-02-23T05:08:23;76646.78;;;11.79
45393;BMP280;31129;44.810;10.334;2024-02-23T05:10:52;76653.84;;;11.81
45393;BMP280;31129;44.810;10.334;2024-02-23T05:13:18;76653.28;;;11.80
45393;BMP280;31129;44.810;10.334;2024-02-23T05:15:43;76659.34;;;11.88
45393;BMP280;31129;44.810;10.334;2024-02-23T05:18:09;76659.88;;;11.89
45393;BMP280;31129;44.810;10.334;2024-02-23T05:20:34;76656.59;;;11.86
45393;BMP280;31129;44.810;10.334;2024-02-23T05:23:00;76662.03;;;11.88
45393;BMP280;31129;44.810;10.334;2024-02-23T05:25:26;76666.41;;;11.92
45393;BMP280;31129;44.810;10.334;2024-02-23T05:27:52;76658.81;;;11.90
45393;BMP280;31129;44.810;10.334;2024-02-23T05:30:18;76668.03;;;11.91
45393;BMP280;31129;44.810;10.334;2024-02-23T05:32:43;76670.81;;;11.99
45393;BMP280;31129;44.810;10.334;2024-02-23T05:35:09;76654.38;;;11.81
45393;BMP280;31129;44.810;10.334;2024-02-23T05:37:35;76641.28;;;11.74
45393;BMP280;31129;44.810;10.334;2024-02-23T05:40:01;76648.91;;;11.76
45393;BMP280;31129;44.810;10.334;2024-02-23T05:42:29;76640.16;;;11.68
45393;BMP280;31129;44.810;10.334;2024-02-23T05:44:55;76636.88;;;11.65
45393;BMP280;31129;44.810;10.334;2024-02-23T05:47:20;76636.91;;;11.67
45393;BMP280;31129;44.810;10.334;2024-02-23T05:49:47;76635.25;;;11.66
45393;BMP280;31129;44.810;10.334;2024-02-23T05:52:12;76624.28;;;11.53
45393;BMP280;31129;44.810;10.334;2024-02-23T05:54:38;76622.63;;;11.52
45393;BMP280;31129;44.810;10.334;2024-02-23T05:57:03;76615.50;;;11.45
45393;BMP280;31129;44.810;10.334;2024-02-23T05:59:30;76607.28;;;11.37
45393;BMP280;31129;44.810;10.334;2024-02-23T06:01:55;76596.94;;;11.33
45393;BMP280;31129;44.810;10.334;2024-02-23T06:04:23;76599.66;;;11.33
45393;BMP280;31129;44.810;10.334;2024-02-23T06:06:48;76596.38;;;11.30
45393;BMP280;31129;44.810;10.334;2024-02-23T06:09:14;76588.72;;;11.25
45393;BMP280;31129;44.810;10.334;2024-02-23T06:11:39;76588.16;;;11.22
45393;BMP280;31129;44.810;10.334;2024-02-23T06:14:05;76575.00;;;11.10
45393;BMP280;31129;44.810;10.334;2024-02-23T06:16:30;76569.56;;;11.05
45393;BMP280;31129;44.810;10.334;2024-02-23T06:18:56;76568.97;;;11.02
45393;BMP280;31129;44.810;10.334;2024-02-23T06:21:21;76560.78;;;10.97
45393;BMP280;31129;44.810;10.334;2024-02-23T06:23:47;76561.91;;;11.00
45393;BMP280;31129;44.810;10.334;2024-02-23T06:26:12;76559.69;;;10.96
45393;BMP280;31129;44.810;10.334;2024-02-23T06:28:38;76573.94;;;11.12
45393;BMP280;31129;44.810;10.334;2024-02-23T06:31:07;76567.34;;;11.03
45393;BMP280;31129;44.810;10.334;2024-02-23T06:33:33;76560.19;;;10.94
45393;BMP280;31129;44.810;10.334;2024-02-23T06:35:58;76559.13;;;10.95
45393;BMP280;31129;44.810;10.334;2024-02-23T06:38:24;76559.69;;;10.96
45393;BMP280;31129;44.810;10.334;2024-02-23T06:40:49;76565.72;;;11.01
45393;BMP280;31129;44.810;10.334;2024-02-23T06:43:15;76558.03;;;10.94
45393;BMP280;31129;44.810;10.334;2024-02-23T06:45:41;76550.44;;;10.90
45393;BMP280;31129;44.810;10.334;2024-02-23T06:48:07;76543.31;;;10.86
45393;BMP280;31129;44.810;10.334;2024-02-23T06:50:32;76545.47;;;10.83
45393;BMP280;31129;44.810;10.334;2024-02-23T06:52:58;76544.94;;;10.85
45393;BMP280;31129;44.810;10.334;2024-02-23T06:55:24;76555.34;;;10.94
45393;BMP280;31129;44.810;10.334;2024-02-23T06:57:49;76540.56;;;10.81
45393;BMP280;31129;44.810;10.334;2024-02-23T07:00:15;76521.94;;;10.63
45393;BMP280;31129;44.810;10.334;2024-02-23T07:02:40;76536.72;;;10.77
45393;BMP280;31129;44.810;10.334;2024-02-23T07:05:06;76534.00;;;10.75
45393;BMP280;31129;44.810;10.334;2024-02-23T07:07:34;76525.25;;;10.66
45393;BMP280;31129;44.810;10.334;2024-02-23T07:10:00;76522.50;;;10.64
45393;BMP280;31129;44.810;10.334;2024-02-23T07:12:26;76530.75;;;10.74
45393;BMP280;31129;44.810;10.334;2024-02-23T07:14:54;76533.50;;;10.77
45393;BMP280;31129;44.810;10.334;2024-02-23T07:17:20;76537.81;;;10.78
45393;BMP280;31129;44.810;10.334;2024-02-23T07:19:46;76526.94;;;10.73
45393;BMP280;31129;44.810;10.334;2024-02-23T07:22:12;76518.69;;;10.60
45393;BMP280;31129;44.810;10.334;2024-02-23T07:24:42;76528.56;;;10.72
45393;BMP280;31129;44.810;10.334;2024-02-23T07:27:09;76524.13;;;10.65
45393;BMP280;31129;44.810;10.334;2024-02-23T07:29:35;76528.50;;;10.69
45393;BMP280;31129;44.810;10.334;2024-02-23T07:32:00;76518.66;;;10.58
45393;BMP280;31129;44.810;10.334;2024-02-23T07:34:26;76524.13;;;10.65
45393;BMP280;31129;44.810;10.334;2024-02-23T07:36:52;76505.53;;;10.48
45393;BMP280;31129;44.810;10.334;2024-02-23T07:39:18;76514.84;;;10.57
45393;BMP280;31129;44.810;10.334;2024-02-23T07:41:43;76516.47;;;10.56
45393;BMP280;31129;44.810;10.334;2024-02-23T07:44:09;76502.28;;;10.48
45393;BMP280;31129;44.810;10.334;2024-02-23T07:46:34;76509.88;;;10.50
45393;BMP280;31129;44.810;10.334;2024-02-23T07:49:00;76512.63;;;10.55
45393;BMP280;31129;44.810;10.334;2024-02-23T07:51:26;76500.63;;;10.44
45393;BMP280;31129;44.810;10.334;2024-02-23T07:53:51;76504.44;;;10.47
45393;BMP280;31129;44.810;10.334;2024-02-23T07:56:16;76502.28;;;10.48
45393;BMP280;31129;44.810;10.334;2024-02-23T07:58:42;76508.81;;;10.51
45393;BMP280;31129;44.810;10.334;2024-02-23T08:01:08;76512.09;;;10.54
45393;BMP280;31129;44.810;10.334;2024-02-23T08:03:33;76502.28;;;10.48
45393;BMP280;31129;44.810;10.334;2024-02-23T08:05:59;76506.63;;;10.49
45393;BMP280;31129;44.810;10.334;2024-02-23T08:08:26;76507.22;;;10.55
45393;BMP280;31129;44.810;10.334;2024-02-23T08:10:53;76509.91;;;10.52
45393;BMP280;31129;44.810;10.334;2024-02-23T08:13:18;76512.16;;;10.57
45393;BMP280;31129;44.810;10.334;2024-02-23T08:15:44;76510.47;;;10.55
45393;BMP280;31129;44.810;10.334;2024-02-23T08:18:10;76507.72;;;10.50
45393;BMP280;31129;44.810;10.334;2024-02-23T08:20:36;76494.63;;;10.41
45393;BMP280;31129;44.810;10.334;2024-02-23T08:23:01;76511.59;;;10.56
45393;BMP280;31129;44.810;10.334;2024-02-23T08:25:27;76502.88;;;10.53
45393;BMP280;31129;44.810;10.334;2024-02-23T08:27:56;76520.84;;;10.60
45393;BMP280;31129;44.810;10.334;2024-02-23T08:30:22;76519.81;;;10.66
45393;BMP280;31129;44.810;10.334;2024-02-23T08:32:47;76512.19;;;10.59
45393;BMP280;31129;44.810;10.334;2024-02-23T08:35:13;76517.59;;;10.62
45393;BMP280;31129;44.810;10.334;2024-02-23T08:37:40;76525.81;;;10.69
45393;BMP280;31129;44.810;10.334;2024-02-23T08:40:07;76525.75;;;10.64
45393;BMP280;31129;44.810;10.334;2024-02-23T08:42:33;76516.50;;;10.61
45393;BMP280;31129;44.810;10.334;2024-02-23T08:44:59;76515.97;;;10.60
45393;BMP280;31129;44.810;10.334;2024-02-23T08:47:24;76520.31;;;10.62
45393;BMP280;31129;44.810;10.334;2024-02-23T08:49:53;76517.06;;;10.61
45393;BMP280;31129;44.810;10.334;2024-02-23T08:52:19;76514.34;;;10.61
45393;BMP280;31129;44.810;10.334;2024-02-23T08:54:44;76519.75;;;10.61
45393;BMP280;31129;44.810;10.334;2024-02-23T08:57:10;76517.03;;;10.59
45393;BMP280;31129;44.810;10.334;2024-02-23T08:59:35;76519.31;;;10.68
45393;BMP280;31129;44.810;10.334;2024-02-23T09:02:01;76526.34;;;10.70
45393;BMP280;31129;44.810;10.334;2024-02-23T09:04:27;76521.44;;;10.65
45393;BMP280;31129;44.810;10.334;2024-02-23T09:06:53;76515.44;;;10.60
45393;BMP280;31129;44.810;10.334;2024-02-23T09:09:19;76525.25;;;10.66
45393;BMP280;31129;44.810;10.334;2024-02-23T09:11:44;76512.72;;;10.60
45393;BMP280;31129;44.810;10.334;2024-02-23T09:14:10;76513.78;;;10.58
45393;BMP280;31129;44.810;10.334;2024-02-23T09:16:35;76518.69;;;10.63
45393;BMP280;31129;44.810;10.334;2024-02-23T09:19:01;76522.50;;;10.64
45393;BMP280;31129;44.810;10.334;2024-02-23T09:21:26;76529.09;;;10.73
45393;BMP280;31129;44.810;10.334;2024-02-23T09:23:52;76530.13;;;10.68
45393;BMP280;31129;44.810;10.334;2024-02-23T09:26:17;76515.44;;;10.60
45393;BMP280;31129;44.810;10.334;2024-02-23T09:28:43;76520.34;;;10.64
45393;BMP280;31129;44.810;10.334;2024-02-23T09:31:10;76521.44;;;10.65
45393;BMP280;31129;44.810;10.334;2024-02-23T09:33:36;76512.19;;;10.59
45393;BMP280;31129;44.810;10.334;2024-02-23T09:36:02;76522.53;;;10.66
45393;BMP280;31129;44.810;10.334;2024-02-23T09:38:28;76517.09;;;10.64
45393;BMP280;31129;44.810;10.334;2024-02-23T09:40:53;76524.75;;;10.71
45393;BMP280;31129;44.810;10.334;2024-02-23T09:43:21;76529.66;;;10.73
45393;BMP280;31129;44.810;10.334;2024-02-23T09:45:47;76526.88;;;10.68
45393;BMP280;31129;44.810;10.334;2024-02-23T09:48:13;76527.47;;;10.71
45393;BMP280;31129;44.810;10.334;2024-02-23T09:50:40;76521.44;;;10.65
45393;BMP280;31129;44.810;10.334;2024-02-23T09:53:07;76542.75;;;10.83
45393;BMP280;31129;44.810;10.334;2024-02-23T09:55:35;76546.03;;;10.86
45393;BMP280;31129;44.810;10.334;2024-02-23T09:58:02;76544.94;;;10.85
45393;BMP280;31129;44.810;10.334;2024-02-23T10:00:29;76542.25;;;10.85
45393;BMP280;31129;44.810;10.334;2024-02-23T10:02:54;76538.38;;;10.79
45393;BMP280;31129;44.810;10.334;2024-02-23T10:05:23;76536.25;;;10.82
45393;BMP280;31129;44.810;10.334;2024-02-23T10:07:54;76554.25;;;10.93
45393;BMP280;31129;44.810;10.334;2024-02-23T10:10:30;76545.53;;;10.88
45393;BMP280;31129;44.810;10.334;2024-02-23T10:12:58;76550.47;;;10.92
45393;BMP280;31129;44.810;10.334;2024-02-23T10:15:24;76547.75;;;10.92
45393;BMP280;31129;44.810;10.334;2024-02-23T10:17:49;76560.84;;;11.02
45393;BMP280;31129;44.810;10.334;2024-02-23T10:20:15;76563.00;;;11.01
45393;BMP280;31129;44.810;10.334;2024-02-23T10:22:40;76564.13;;;11.05
45393;BMP280;31129;44.810;10.334;2024-02-23T10:25:07;76577.31;;;11.20
45393;BMP280;31129;44.810;10.334;2024-02-23T10:27:32;76592.06;;;11.33
45393;BMP280;31129;44.810;10.334;2024-02-23T10:29:58;76594.22;;;11.30
45393;BMP280;31129;44.810;10.334;2024-02-23T10:32:25;76581.09;;;11.21
45393;BMP280;31129;44.810;10.334;2024-02-23T10:34:55;76589.88;;;11.31
45393;BMP280;31129;44.810;10.334;2024-02-23T10:37:22;76590.91;;;11.27
45393;BMP280;31129;44.810;10.334;2024-02-23T10:39:50;76592.56;;;11.29
45393;BMP280;31129;44.810;10.334;2024-02-23T10:42:22;76581.69;;;11.24
45393;BMP280;31129;44.810;10.334;2024-02-23T10:44:50;76589.31;;;11.28
45393;BMP280;31129;44.810;10.334;2024-02-23T10:47:16;76588.78;;;11.30
45393;BMP280;31129;44.810;10.334;2024-02-23T10:49:44;76598.09;;;11.39
45393;BMP280;31129;44.810;10.334;2024-02-23T10:52:11;76601.34;;;11.37
45393;BMP280;31129;44.810;10.334;2024-02-23T10:54:39;76607.91;;;11.46
45393;BMP280;31129;44.810;10.334;2024-02-23T10:57:06;76618.84;;;11.53
45393;BMP280;31129;44.810;10.334;2024-02-23T10:59:32;76602.97;;;11.38
45393;BMP280;31129;44.810;10.334;2024-02-23T11:01:59;76600.28;;;11.41
45393;BMP280;31129;44.810;10.334;2024-02-23T11:04:26;76614.50;;;11.52
45393;BMP280;31129;44.810;10.334;2024-02-23T11:06:53;76622.69;;;11.59
45393;BMP280;31129;44.810;10.334;2024-02-23T11:09:25;76623.78;;;11.60
45393;BMP280;31129;44.810;10.334;2024-02-23T11:11:58;76610.66;;;11.48
45393;BMP280;31129;44.810;10.334;2024-02-23T11:14:37;76617.25;;;11.54
45393;BMP280;31129;44.810;10.334;2024-02-23T11:17:03;76629.78;;;11.63
45393;BMP280;31129;44.810;10.334;2024-02-23T11:19:33;76624.31;;;11.58
45393;BMP280;31129;44.810;10.334;2024-02-23T11:21:59;76640.22;;;11.76
45393;BMP280;31129;44.810;10.334;2024-02-23T11:24:28;76652.25;;;11.84
45393;BMP280;31129;44.810;10.334;2024-02-23T11:27:00;76651.16;;;11.83
45393;BMP280;31129;44.810;10.334;2024-02-23T11:29:33;76653.34;;;11.88
45393;BMP280;31129;44.810;10.334;2024-02-23T11:32:00;76650.59;;;11.83
45393;BMP280;31129;44.810;10.334;2024-02-23T11:34:30;76639.66;;;11.75
45393;BMP280;31129;44.810;10.334;2024-02-23T11:36:56;76641.94;;;11.82
45393;BMP280;31129;44.810;10.334;2024-02-23T11:39:23;76633.13;;;11.69
45393;BMP280;31129;44.810;10.334;2024-02-23T11:41:49;76648.97;;;11.81
45393;BMP280;31129;44.810;10.334;2024-02-23T11:44:15;76665.44;;;12.01
45393;BMP280;31129;44.810;10.334;2024-02-23T11:46:43;76652.28;;;11.89
45393;BMP280;31129;44.810;10.334;2024-02-23T11:49:08;76661.03;;;11.95
45393;BMP280;31129;44.810;10.334;2024-02-23T11:51:35;76677.47;;;12.10
45393;BMP280;31129;44.810;10.334;2024-02-23T11:54:01;76668.66;;;11.99
45393;BMP280;31129;44.810;10.334;2024-02-23T11:56:27;76678.53;;;12.08
45393;BMP280;31129;44.810;10.334;2024-02-23T11:58:53;76669.75;;;12.00
45393;BMP280;31129;44.810;10.334;2024-02-23T12:01:19;76658.28;;;11.92
45393;BMP280;31129;44.810;10.334;2024-02-23T12:03:44;76651.72;;;11.84
45393;BMP280;31129;44.810;10.334;2024-02-23T12:06:11;76656.06;;;11.88
45393;BMP280;31129;44.810;10.334;2024-02-23T12:08:37;76647.31;;;11.80
45393;BMP280;31129;44.810;10.334;2024-02-23T12:11:10;76651.69;;;11.81
45393;BMP280;31129;44.810;10.334;2024-02-23T12:13:36;76648.47;;;11.86
45393;BMP280;31129;44.810;10.334;2024-02-23T12:16:02;76655.53;;;11.87
45393;BMP280;31129;44.810;10.334;2024-02-23T12:18:28;76659.91;;;11.91
45393;BMP280;31129;44.810;10.334;2024-02-23T12:21:14;76660.97;;;11.92
45393;BMP280;31129;44.810;10.334;2024-02-23T12:23:49;76651.19;;;11.88
45393;BMP280;31129;44.810;10.334;2024-02-23T12:26:16;76659.38;;;11.93
45393;BMP280;31129;44.810;10.334;2024-02-23T12:28:43;76657.16;;;11.89
45393;BMP280;31129;44.810;10.334;2024-02-23T12:31:08;76646.22;;;11.79
45393;BMP280;31129;44.810;10.334;2024-02-23T12:33:35;76649.53;;;11.84
45393;BMP280;31129;44.810;10.334;2024-02-23T12:36:02;76658.25;;;11.90
45393;BMP280;31129;44.810;10.334;2024-02-23T12:38:28;76661.53;;;11.90
45393;BMP280;31129;44.810;10.334;2024-02-23T12:40:54;76667.03;;;12.00
45393;BMP280;31129;44.810;10.334;2024-02-23T12:43:20;76676.31;;;12.06
45393;BMP280;31129;44.810;10.334;2024-02-23T12:45:57;76674.69;;;12.05
45393;BMP280;31129;44.810;10.334;2024-02-23T12:48:22;76673.59;;;12.04
45393;BMP280;31129;44.810;10.334;2024-02-23T12:50:49;76657.72;;;11.89
45393;BMP280;31129;44.810;10.334;2024-02-23T12:53:34;76659.91;;;11.91
45393;BMP280;31129;44.810;10.334;2024-02-23T12:56:02;76657.78;;;11.94
45393;BMP280;31129;44.810;10.334;2024-02-23T12:58:29;76641.84;;;11.77
45393;BMP280;31129;44.810;10.334;2024-02-23T13:00:55;76650.63;;;11.85
45393;BMP280;31129;44.810;10.334;2024-02-23T13:03:21;76658.25;;;11.90
45393;BMP280;31129;44.810;10.334;2024-02-23T13:05:47;76680.72;;;12.11
45393;BMP280;31129;44.810;10.334;2024-02-23T13:08:12;76676.91;;;12.09
45393;BMP280;31129;44.810;10.334;2024-02-23T13:10:38;76662.06;;;11.91
45393;BMP280;31129;44.810;10.334;2024-02-23T13:13:03;76665.94;;;11.99
45393;BMP280;31129;44.810;10.334;2024-02-23T13:15:29;76663.75;;;11.95
45393;BMP280;31129;44.810;10.334;2024-02-23T13:17:54;76663.78;;;11.97
45393;BMP280;31129;44.810;10.334;2024-02-23T13:20:22;76667.59;;;11.98
45393;BMP280;31129;44.810;10.334;2024-02-23T13:22:48;76675.31;;;12.11
45393;BMP280;31129;44.810;10.334;2024-02-23T13:25:13;76687.88;;;12.20
45393;BMP280;31129;44.810;10.334;2024-02-23T13:27:39;76700.38;;;12.24
45393;BMP280;31129;44.810;10.334;2024-02-23T13:30:05;76699.91;;;12.31
45393;BMP280;31129;44.810;10.334;2024-02-23T13:32:32;76699.91;;;12.31
45393;BMP280;31129;44.810;10.334;2024-02-23T13:34:57;76703.19;;;12.34
45393;BMP280;31129;44.810;10.334;2024-02-23T13:37:23;76703.19;;;12.34
45393;BMP280;31129;44.810;10.334;2024-02-23T13:39:48;76699.88;;;12.28
45393;BMP280;31129;44.810;10.334;2024-02-23T13:42:14;76679.63;;;12.09
45393;BMP280;31129;44.810;10.334;2024-02-23T13:44:39;76679.03;;;12.06
45393;BMP280;31129;44.810;10.334;2024-02-23T13:47:05;76679.09;;;12.09
45393;BMP280;31129;44.810;10.334;2024-02-23T13:49:30;76679.63;;;12.09
45393;BMP280;31129;44.810;10.334;2024-02-23T13:51:56;76671.91;;;12.00